Terminal Aerodrome Forecast
Issued by NWS

Home | Current Version | Previous Version | Text Only | Print | Product List | Glossary On
Versions: 1 2 3 4 5 6 7 8 9 10 11 12 13 14 15 16 17 18 19 20 21 22 23 24 25 26 27
000
FTAK31 PAFA 241138
TAFAGA
TAF
PAGA 241138Z 2412/2512 19004KT P6SM SCT080 OVC100
     FM241600 24013KT P6SM VCSH SCT025 OVC050 PROB30 2500/2506 P6SM
      -SHRA
     FM250600 22007KT 5SM -SHRA BR SCT015 BKN025 OVC050=

USA.gov is the U.S. government's official web portal to all federal, state and local government web resources and services.